createdAt,value
2018-07-12T00:01:21.116Z,15.20
2018-07-12T00:03:48.474Z,12.10
2018-07-12T00:06:15.908Z,16.37
2018-07-12T00:08:43.255Z,9.37
2018-07-12T00:11:10.691Z,10.07
2018-07-12T00:13:38.050Z,11.23
2018-07-12T00:16:05.398Z,12.57
2018-07-12T00:18:32.879Z,11.83
2018-07-12T00:21:00.293Z,9.33
2018-07-12T00:23:27.647Z,10.57
2018-07-12T00:25:55.060Z,12.07
2018-07-12T00:28:22.407Z,10.90
2018-07-12T00:30:49.883Z,11.17
2018-07-12T00:33:17.244Z,11.20
2018-07-12T00:35:44.654Z,9.67
2018-07-12T00:38:12.031Z,10.10
2018-07-12T00:40:39.399Z,10.17
2018-07-12T00:43:06.788Z,10.87
2018-07-12T00:45:34.160Z,11.93
2018-07-12T00:48:01.537Z,11.80
2018-07-12T00:50:28.980Z,13.73
2018-07-12T00:52:56.356Z,9.87
2018-07-12T00:55:23.736Z,10.03
2018-07-12T00:57:51.174Z,11.07
2018-07-12T01:00:18.539Z,9.10
2018-07-12T01:02:45.940Z,9.90
2018-07-12T01:05:13.442Z,12.13
2018-07-12T01:07:40.811Z,11.63
2018-07-12T01:10:08.164Z,12.77
2018-07-12T01:12:35.547Z,12.60
2018-07-12T01:15:02.994Z,12.23
2018-07-12T01:17:30.339Z,13.77
2018-07-12T01:19:57.686Z,10.60
2018-07-12T01:22:25.043Z,14.37
2018-07-12T01:24:52.426Z,11.23
2018-07-12T01:27:19.797Z,12.17
2018-07-12T01:29:47.228Z,11.90
2018-07-12T01:32:14.578Z,12.87
2018-07-12T01:34:41.942Z,11.23
2018-07-12T01:37:09.318Z,11.57
2018-07-12T01:39:36.732Z,11.13
2018-07-12T01:42:04.079Z,13.97
2018-07-12T01:44:31.516Z,12.83
2018-07-12T01:46:58.881Z,12.87
2018-07-12T01:49:26.255Z,14.43
2018-07-12T01:51:53.669Z,11.80
2018-07-12T01:54:21.069Z,13.80
2018-07-12T01:56:48.491Z,11.07
2018-07-12T01:59:15.879Z,13.33
2018-07-12T02:01:43.296Z,12.57
2018-07-12T02:04:10.674Z,12.13
2018-07-12T02:06:38.022Z,12.37
2018-07-12T02:09:06.169Z,15.23
2018-07-12T02:11:33.512Z,12.07
2018-07-12T02:14:00.887Z,14.63
2018-07-12T02:16:28.267Z,14.33
2018-07-12T02:18:56.208Z,14.30
2018-07-12T02:21:23.565Z,13.10
2018-07-12T02:23:50.966Z,13.33
2018-07-12T02:26:18.412Z,13.63
2018-07-12T02:28:45.931Z,11.83
2018-07-12T02:31:13.298Z,13.47
2018-07-12T02:33:40.686Z,14.33
2018-07-12T02:36:08.054Z,11.80
2018-07-12T02:38:35.455Z,11.97
2018-07-12T02:41:02.861Z,14.67
2018-07-12T02:43:30.214Z,12.80
2018-07-12T02:45:57.592Z,12.57
2018-07-12T02:48:24.946Z,12.00
2018-07-12T02:50:52.359Z,14.00
2018-07-12T02:53:19.716Z,14.13
2018-07-12T02:55:47.123Z,11.53
2018-07-12T02:58:14.710Z,15.80
2018-07-12T03:00:42.061Z,12.83
2018-07-12T03:03:09.473Z,12.17
2018-07-12T03:05:37.803Z,14.03
2018-07-12T03:08:05.170Z,20.40
2018-07-12T03:10:32.543Z,15.30
2018-07-12T03:12:59.893Z,16.47
2018-07-12T03:15:27.291Z,25.20
2018-07-12T03:17:54.731Z,26.63
2018-07-12T03:20:22.097Z,21.50
2018-07-12T03:22:49.487Z,22.20
2018-07-12T03:25:16.870Z,23.07
2018-07-12T03:27:44.320Z,23.63
2018-07-12T03:30:11.744Z,18.90
2018-07-12T03:32:39.133Z,20.53
2018-07-12T03:35:06.639Z,20.37
2018-07-12T03:37:34.004Z,20.53
2018-07-12T03:40:01.363Z,15.60
2018-07-12T03:42:28.817Z,18.00
2018-07-12T03:44:56.203Z,19.27
2018-07-12T03:47:23.582Z,14.67
2018-07-12T03:49:50.973Z,15.13
2018-07-12T03:52:18.346Z,20.57
2018-07-12T03:54:45.720Z,23.67
2018-07-12T03:57:13.149Z,20.17
2018-07-12T03:59:40.653Z,19.30
2018-07-12T04:02:08.140Z,21.97
2018-07-12T04:04:35.526Z,20.77
2018-07-12T04:07:02.955Z,17.40
2018-07-12T04:09:30.351Z,16.50
2018-07-12T04:11:57.720Z,19.27
2018-07-12T04:14:25.310Z,15.63
2018-07-12T04:16:52.671Z,14.73
2018-07-12T04:19:20.092Z,14.60
2018-07-12T04:21:47.686Z,15.97
2018-07-12T04:24:15.104Z,15.37
2018-07-12T04:26:43.199Z,15.50
2018-07-12T04:29:10.637Z,18.53
2018-07-12T04:31:38.091Z,18.40
2018-07-12T04:34:05.494Z,15.17
2018-07-12T04:36:32.951Z,18.00
2018-07-12T04:39:00.310Z,14.20
2018-07-12T04:41:27.743Z,17.90
2018-07-12T04:43:55.121Z,15.30
2018-07-12T04:46:22.506Z,16.90
2018-07-12T04:48:49.946Z,15.70
2018-07-12T04:51:17.375Z,15.97
2018-07-12T04:53:45.047Z,19.23
2018-07-12T04:56:12.535Z,16.07
2018-07-12T04:58:39.911Z,15.87
2018-07-12T05:01:07.371Z,16.07
2018-07-12T05:03:34.751Z,16.07
2018-07-12T05:06:02.126Z,16.90
2018-07-12T05:08:29.620Z,16.30
2018-07-12T05:10:57.001Z,18.30
2018-07-12T05:13:24.370Z,17.97
2018-07-12T05:15:51.797Z,15.17
2018-07-12T05:18:19.159Z,15.77
2018-07-12T05:20:46.543Z,14.07
2018-07-12T05:23:14.226Z,10.67
2018-07-12T05:25:41.784Z,11.83
2018-07-12T05:28:09.490Z,12.63
2018-07-12T05:30:36.917Z,16.63
2018-07-12T05:33:05.288Z,13.83
2018-07-12T05:35:33.940Z,9.40
2018-07-12T05:38:02.701Z,11.73
2018-07-12T05:40:31.444Z,11.43
2018-07-12T05:43:00.096Z,10.17
2018-07-12T05:45:28.895Z,18.17
2018-07-12T05:47:58.244Z,11.27
2018-07-12T05:50:26.886Z,14.83
2018-07-12T05:52:55.623Z,13.07
2018-07-12T05:55:24.367Z,12.27
2018-07-12T05:57:53.130Z,14.20
2018-07-12T06:00:21.926Z,17.80
2018-07-12T06:02:50.593Z,15.33
2018-07-12T06:05:19.284Z,18.73
2018-07-12T06:07:48.066Z,20.67
2018-07-12T06:10:16.817Z,22.10
2018-07-12T06:12:45.887Z,23.00
2018-07-12T06:15:14.556Z,22.53
2018-07-12T06:17:43.231Z,19.53
2018-07-12T06:20:11.936Z,22.07
2018-07-12T06:22:40.699Z,17.27
2018-07-12T06:25:09.407Z,24.00
2018-07-12T06:27:38.104Z,17.77
2018-07-12T06:30:07.294Z,16.50
2018-07-12T06:32:35.987Z,18.03
2018-07-12T06:35:04.667Z,17.57
2018-07-12T06:37:33.388Z,16.23
2018-07-12T06:40:02.155Z,16.90
2018-07-12T06:42:31.292Z,22.77
2018-07-12T06:45:00.065Z,14.73
2018-07-12T06:47:28.767Z,16.93
2018-07-12T06:49:57.476Z,16.00
2018-07-12T06:52:26.273Z,15.20
2018-07-12T06:54:54.933Z,12.30
2018-07-12T06:57:23.631Z,16.13
2018-07-12T06:59:52.307Z,15.70
2018-07-12T07:02:20.981Z,14.53
2018-07-12T07:04:49.700Z,15.10
2018-07-12T07:07:18.411Z,15.47
2018-07-12T07:09:47.101Z,16.00
2018-07-12T07:12:16.099Z,13.17
2018-07-12T07:14:44.798Z,14.80
2018-07-12T07:17:13.680Z,14.13
2018-07-12T07:19:42.451Z,15.93
2018-07-12T07:22:11.156Z,13.10
2018-07-12T07:24:39.879Z,16.13
2018-07-12T07:27:08.691Z,13.87
2018-07-12T07:29:37.394Z,13.37
2018-07-12T07:32:06.168Z,8.90
2018-07-12T07:34:34.915Z,12.60
2018-07-12T07:37:03.705Z,8.73
2018-07-12T07:39:32.397Z,11.77
2018-07-12T07:42:01.129Z,8.63
2018-07-12T07:44:29.815Z,9.83
2018-07-12T07:46:58.504Z,8.33
2018-07-12T07:49:27.274Z,8.03
2018-07-12T07:51:56.064Z,8.90
2018-07-12T07:54:24.748Z,8.03
2018-07-12T07:56:53.455Z,8.47
2018-07-12T07:59:22.259Z,9.57
2018-07-12T08:01:50.928Z,7.87
2018-07-12T08:04:19.574Z,9.60
2018-07-12T08:06:48.285Z,7.67
2018-07-12T08:09:17.396Z,7.93
2018-07-12T08:11:46.080Z,8.03
2018-07-12T08:14:14.780Z,12.03
2018-07-12T08:16:43.536Z,8.67
2018-07-12T08:19:12.246Z,8.67
2018-07-12T08:21:41.338Z,7.67
2018-07-12T08:24:18.640Z,8.60
2018-07-12T08:26:47.358Z,10.05
2018-07-12T08:29:16.023Z,7.70
2018-07-12T08:31:44.734Z,6.55
2018-07-12T08:34:13.425Z,6.67
2018-07-12T08:36:42.145Z,9.85
2018-07-12T08:39:10.902Z,8.18
2018-07-12T08:41:39.582Z,6.60
2018-07-12T08:44:08.583Z,7.33
2018-07-12T08:46:41.117Z,7.03
2018-07-12T08:49:10.848Z,10.10
2018-07-12T08:51:39.678Z,6.25
2018-07-12T08:54:13.178Z,8.38
2018-07-12T08:56:42.396Z,8.73
2018-07-12T08:59:11.207Z,6.42
2018-07-12T09:01:39.978Z,9.60
2018-07-12T09:04:10.681Z,7.85
2018-07-12T09:06:39.347Z,6.67
2018-07-12T09:09:08.521Z,6.90
2018-07-12T09:11:42.010Z,5.08
2018-07-12T09:14:10.798Z,6.50
2018-07-12T09:16:39.556Z,7.85
2018-07-12T09:19:12.355Z,5.62
2018-07-12T09:21:41.216Z,6.40
2018-07-12T09:24:09.974Z,6.80
2018-07-12T09:26:38.663Z,5.58
2018-07-12T09:29:07.719Z,7.22
2018-07-12T09:31:36.544Z,5.75
2018-07-12T09:34:05.547Z,7.05
2018-07-12T09:36:34.438Z,5.37
2018-07-12T09:39:03.231Z,6.42
2018-07-12T09:41:31.962Z,5.95
2018-07-12T09:44:00.635Z,7.75
2018-07-12T09:46:29.375Z,5.53
2018-07-12T09:48:58.159Z,5.25
2018-07-12T09:51:26.859Z,7.20
2018-07-12T09:53:55.542Z,5.75
2018-07-12T09:56:34.314Z,5.75
2018-07-12T09:59:02.884Z,5.40
2018-07-12T10:01:36.636Z,6.60
2018-07-12T10:04:05.713Z,5.80
2018-07-12T10:07:12.492Z,5.22
2018-07-12T10:10:04.855Z,5.22
2018-07-12T10:12:43.104Z,4.80
2018-07-12T10:15:26.234Z,6.15
2018-07-12T10:17:59.971Z,5.20
2018-07-12T10:20:28.681Z,5.12
2018-07-12T10:22:57.379Z,5.65
2018-07-12T10:25:26.060Z,5.25
2018-07-12T10:27:54.745Z,6.70
2018-07-12T10:30:23.497Z,5.55
2018-07-12T10:32:52.178Z,6.17
2018-07-12T10:35:21.811Z,5.72
2018-07-12T10:37:50.562Z,4.92
2018-07-12T10:40:19.265Z,4.42
2018-07-12T10:42:48.605Z,4.67
2018-07-12T10:45:17.337Z,4.85
2018-07-12T10:47:46.044Z,4.47
2018-07-12T10:50:14.774Z,5.60
2018-07-12T10:52:43.439Z,5.40
2018-07-12T10:55:12.111Z,5.55
2018-07-12T10:57:40.863Z,6.33
2018-07-12T11:00:11.905Z,4.87
2018-07-12T11:02:43.243Z,6.08
2018-07-12T11:05:13.161Z,4.75
2018-07-12T11:10:22.065Z,5.85
2018-07-12T11:13:01.763Z,4.92
2018-07-12T11:15:31.730Z,4.55
2018-07-12T11:18:04.676Z,4.83
2018-07-12T11:20:34.895Z,5.72
2018-07-12T11:23:03.654Z,4.85
2018-07-12T11:25:32.452Z,4.80
2018-07-12T11:28:01.655Z,5.28
2018-07-12T11:30:30.388Z,4.53
2018-07-12T11:33:00.833Z,4.25
2018-07-12T11:35:30.494Z,5.65
2018-07-12T11:37:59.149Z,3.98
2018-07-12T11:40:27.832Z,5.22
2018-07-12T11:42:56.500Z,5.85
2018-07-12T11:45:25.216Z,8.23
2018-07-12T11:47:53.927Z,6.05
2018-07-12T11:50:22.655Z,4.15
2018-07-12T11:52:51.356Z,4.58
2018-07-12T11:55:20.114Z,4.72
2018-07-12T11:57:49.847Z,4.53
2018-07-12T12:00:18.557Z,6.03
2018-07-12T12:02:47.347Z,4.00
2018-07-12T12:05:16.022Z,4.28
2018-07-12T12:07:44.702Z,4.80
2018-07-12T12:10:13.420Z,4.65
2018-07-12T12:12:42.124Z,4.12
2018-07-12T12:15:10.850Z,4.15
2018-07-12T12:17:40.235Z,4.30
2018-07-12T12:20:09.171Z,4.17
2018-07-12T12:22:37.907Z,4.28
2018-07-12T12:25:06.613Z,4.05
2018-07-12T12:27:35.316Z,4.28
2018-07-12T12:30:05.467Z,5.53
2018-07-12T12:32:34.200Z,4.17
2018-07-12T12:35:04.175Z,4.28
2018-07-12T12:37:32.850Z,6.17
2018-07-12T12:40:01.537Z,3.60
2018-07-12T12:42:30.213Z,8.05
2018-07-12T12:44:59.611Z,3.72
2018-07-12T12:47:28.395Z,3.95
2018-07-12T12:49:57.134Z,3.90
2018-07-12T12:52:25.808Z,3.47
2018-07-12T12:54:54.537Z,3.67
2018-07-12T12:57:23.220Z,4.37
2018-07-12T12:59:51.968Z,3.92
2018-07-12T13:02:20.799Z,4.05
2018-07-12T13:04:49.488Z,4.58
2018-07-12T13:07:18.182Z,3.12
2018-07-12T13:09:46.824Z,3.22
2018-07-12T13:12:15.537Z,3.60
2018-07-12T13:14:44.498Z,3.15
2018-07-12T13:17:13.215Z,3.20
2018-07-12T13:19:41.936Z,4.35
2018-07-12T13:22:10.660Z,3.60
2018-07-12T13:24:39.379Z,5.17
2018-07-12T13:27:08.067Z,3.52
2018-07-12T13:29:36.695Z,3.62
2018-07-12T13:32:05.387Z,5.17
2018-07-12T13:34:34.125Z,6.00
2018-07-12T13:37:02.897Z,4.50
2018-07-12T13:39:31.639Z,4.08
2018-07-12T13:42:00.462Z,4.40
2018-07-12T13:44:29.147Z,4.62
2018-07-12T13:46:57.850Z,6.47
2018-07-12T13:49:26.552Z,4.65
2018-07-12T13:51:55.404Z,7.47
2018-07-12T13:54:24.063Z,4.87
2018-07-12T13:56:53.739Z,4.87
2018-07-12T13:59:22.450Z,4.92
2018-07-12T14:01:51.211Z,5.92
2018-07-12T14:04:19.891Z,3.72
2018-07-12T14:06:48.593Z,3.83
2018-07-12T14:09:17.502Z,4.15
2018-07-12T14:11:46.271Z,3.90
2018-07-12T14:14:15.029Z,3.80
2018-07-12T14:16:43.723Z,5.65
2018-07-12T14:19:13.352Z,3.92
2018-07-12T14:21:42.136Z,4.00
2018-07-12T14:25:13.859Z,3.90
2018-07-12T14:27:42.501Z,4.05
2018-07-12T14:30:11.238Z,3.83
2018-07-12T14:32:39.956Z,3.80
2018-07-12T14:35:08.800Z,4.30
2018-07-12T14:37:37.515Z,5.47
2018-07-12T14:40:06.889Z,5.42
2018-07-12T14:42:35.598Z,3.92
2018-07-12T14:45:04.437Z,4.00
2018-07-12T14:47:33.182Z,4.40
2018-07-12T14:50:02.003Z,4.30
2018-07-12T14:52:30.672Z,4.45
2018-07-12T14:54:59.377Z,5.17
2018-07-12T14:57:28.098Z,4.65
2018-07-12T14:59:56.818Z,3.98
2018-07-12T15:02:26.080Z,7.75
2018-07-12T15:04:54.767Z,4.08
2018-07-12T15:07:23.452Z,4.55
2018-07-12T15:09:52.244Z,4.12
2018-07-12T15:12:20.964Z,4.45
2018-07-12T15:14:49.608Z,4.70
2018-07-12T15:17:18.470Z,4.97
2018-07-12T15:19:47.263Z,7.28
2018-07-12T15:22:15.976Z,7.78
2018-07-12T15:24:44.676Z,5.35
2018-07-12T15:27:13.341Z,4.45
2018-07-12T15:29:42.210Z,5.28
2018-07-12T15:32:10.906Z,9.05
2018-07-12T15:34:39.634Z,4.83
2018-07-12T15:37:08.337Z,4.45
2018-07-12T15:39:37.593Z,7.17
2018-07-12T15:42:06.406Z,4.37
2018-07-12T15:44:35.099Z,4.08
2018-07-12T15:47:03.987Z,4.28
2018-07-12T15:49:32.784Z,4.42
2018-07-12T15:54:14.856Z,4.50
2018-07-12T15:56:43.528Z,8.08
2018-07-12T15:59:12.184Z,3.87
2018-07-12T16:01:40.995Z,4.33
2018-07-12T16:04:09.743Z,4.60
2018-07-12T16:06:38.493Z,4.80
2018-07-12T16:09:09.136Z,4.72
2018-07-12T16:11:37.843Z,4.25
2018-07-12T16:14:06.602Z,4.92
2018-07-12T16:16:35.438Z,6.05
2018-07-12T16:19:04.156Z,4.45
2018-07-12T16:21:32.937Z,4.83
2018-07-12T16:24:01.768Z,4.92
2018-07-12T16:29:22.508Z,6.20
2018-07-12T16:31:52.796Z,4.53
2018-07-12T16:34:23.155Z,6.70
2018-07-12T16:36:51.856Z,6.00
2018-07-12T16:39:20.897Z,4.78
2018-07-12T16:41:50.372Z,6.03
2018-07-12T16:44:19.104Z,8.18
2018-07-12T16:46:47.848Z,4.80
2018-07-12T16:49:16.561Z,5.03
2018-07-12T16:51:45.304Z,5.17
2018-07-12T16:54:14.099Z,5.75
2018-07-12T16:56:42.847Z,5.08
2018-07-12T16:59:11.646Z,5.10
2018-07-12T17:01:40.465Z,5.47
2018-07-12T17:04:09.222Z,10.82
2018-07-12T17:06:37.970Z,6.58
2018-07-12T17:09:08.037Z,6.45
2018-07-12T17:11:36.850Z,8.73
2018-07-12T17:14:05.662Z,5.80
2018-07-12T17:16:34.332Z,7.37
2018-07-12T17:19:03.237Z,6.17
2018-07-12T17:21:32.048Z,7.22
2018-07-12T17:24:02.632Z,7.67
2018-07-12T17:26:31.338Z,5.67
2018-07-12T17:29:00.255Z,6.65
2018-07-12T17:31:29.036Z,5.90
2018-07-12T17:33:57.848Z,5.62
2018-07-12T17:36:26.648Z,7.33
2018-07-12T17:38:55.439Z,7.97
2018-07-12T17:41:24.194Z,6.17
2018-07-12T17:43:53.001Z,6.53
2018-07-12T17:46:21.887Z,6.25
2018-07-12T17:48:50.692Z,6.83
2018-07-12T17:51:19.452Z,8.53
2018-07-12T17:53:48.194Z,6.70
2018-07-12T17:56:16.947Z,6.35
2018-07-12T17:58:45.751Z,6.97
2018-07-12T18:01:14.551Z,6.97
2018-07-12T18:03:43.332Z,7.08
2018-07-12T18:06:12.220Z,7.83
2018-07-12T18:08:41.345Z,8.23
2018-07-12T18:11:10.101Z,7.30
2018-07-12T18:13:38.918Z,7.78
2018-07-12T18:16:07.660Z,6.97
2018-07-12T18:18:36.442Z,7.17
2018-07-12T18:21:05.143Z,7.78
2018-07-12T18:23:33.839Z,7.70
2018-07-12T18:26:02.620Z,7.35
2018-07-12T18:28:31.391Z,7.60
2018-07-12T18:31:00.120Z,7.50
2018-07-12T18:33:29.030Z,16.73
2018-07-12T18:35:57.865Z,12.18
2018-07-12T18:38:26.676Z,10.50
2018-07-12T18:40:55.581Z,29.95
2018-07-12T18:43:24.280Z,9.38
2018-07-12T18:45:53.044Z,9.43
2018-07-12T18:48:21.814Z,11.95
2018-07-12T18:50:50.575Z,12.37
2018-07-12T18:53:19.364Z,16.07
2018-07-12T18:55:48.139Z,14.15
2018-07-12T18:58:16.919Z,14.40
2018-07-12T19:00:45.627Z,17.55
2018-07-12T19:03:14.440Z,19.55
2018-07-12T19:05:43.215Z,17.92
2018-07-12T19:08:11.966Z,22.48
2018-07-12T19:10:40.707Z,19.50
2018-07-12T19:13:09.530Z,72.95
2018-07-12T19:15:38.320Z,22.85
2018-07-12T19:18:07.053Z,18.17
2018-07-12T19:20:35.915Z,13.65
2018-07-12T19:23:04.656Z,15.90
2018-07-12T19:25:33.442Z,15.28
2018-07-12T19:28:02.213Z,16.23
2018-07-12T19:30:30.946Z,14.43
2018-07-12T19:32:59.786Z,18.40
2018-07-12T19:35:28.571Z,34.67
2018-07-12T19:37:57.327Z,20.13
2018-07-12T19:40:26.219Z,16.50
2018-07-12T19:42:55.173Z,15.70
2018-07-12T19:45:23.898Z,16.85
2018-07-12T19:47:52.701Z,14.20
2018-07-12T19:50:21.615Z,13.60
2018-07-12T19:52:50.479Z,34.33
2018-07-12T19:55:19.374Z,42.23
2018-07-12T19:57:48.252Z,11.70
2018-07-12T20:00:17.020Z,13.90
2018-07-12T20:02:45.724Z,17.07
2018-07-12T20:05:14.483Z,18.77
2018-07-12T20:07:43.314Z,21.13
2018-07-12T20:10:12.114Z,22.93
2018-07-12T20:12:40.950Z,18.13
2018-07-12T20:15:10.582Z,23.63
2018-07-12T20:17:39.378Z,20.03
2018-07-12T20:20:08.945Z,32.23
2018-07-12T20:22:38.043Z,18.53
2018-07-12T20:25:06.751Z,17.23
2018-07-12T20:27:35.588Z,23.60
2018-07-12T20:30:05.520Z,19.17
2018-07-12T20:32:34.262Z,17.97
2018-07-12T20:35:03.200Z,23.70
2018-07-12T20:37:31.882Z,29.07
2018-07-12T20:40:00.738Z,25.20
2018-07-12T20:42:29.494Z,21.70
2018-07-12T20:44:58.323Z,13.60
2018-07-12T20:47:27.115Z,18.60
2018-07-12T20:49:55.856Z,14.63
2018-07-12T20:52:24.622Z,14.37
2018-07-12T20:54:53.376Z,29.43
2018-07-12T20:57:22.259Z,17.67
2018-07-12T20:59:50.970Z,13.73
2018-07-12T21:02:20.602Z,13.43
2018-07-12T21:04:49.559Z,17.90
2018-07-12T21:07:18.407Z,14.93
2018-07-12T21:09:47.280Z,15.43
2018-07-12T21:12:17.053Z,14.97
2018-07-12T21:14:47.789Z,19.60
2018-07-12T21:17:17.522Z,12.37
2018-07-12T21:19:46.281Z,13.77
2018-07-12T21:22:15.095Z,14.60
2018-07-12T21:24:43.795Z,14.23
2018-07-12T21:27:12.482Z,13.57
2018-07-12T21:29:41.230Z,13.40
2018-07-12T21:32:09.911Z,16.87
2018-07-12T21:34:38.747Z,14.43
2018-07-12T21:37:07.591Z,12.80
2018-07-12T21:39:36.456Z,12.80
2018-07-12T21:42:06.255Z,11.60
2018-07-12T21:44:35.532Z,13.17
2018-07-12T21:47:04.959Z,12.93
2018-07-12T21:49:33.704Z,15.73
2018-07-12T21:52:02.489Z,14.30
2018-07-12T21:54:31.239Z,12.37
2018-07-12T21:57:00.052Z,10.03
2018-07-12T21:59:28.884Z,10.50
2018-07-12T22:01:57.584Z,15.30
2018-07-12T22:04:26.353Z,11.30
2018-07-12T22:07:04.619Z,16.10
2018-07-12T22:09:33.312Z,10.80
2018-07-12T22:12:01.989Z,11.93
2018-07-12T22:14:30.710Z,10.50
2018-07-12T22:16:59.463Z,11.33
2018-07-12T22:19:28.470Z,10.27
2018-07-12T22:21:57.223Z,11.10
2018-07-12T22:24:26.907Z,11.53
2018-07-12T22:26:55.610Z,13.37
2018-07-12T22:29:24.277Z,10.03
2018-07-12T22:31:53.016Z,10.30
2018-07-12T22:34:21.728Z,11.50
2018-07-12T22:36:50.476Z,10.70
2018-07-12T22:39:19.239Z,10.53
2018-07-12T22:41:48.143Z,14.10
2018-07-12T22:44:16.855Z,12.47
2018-07-12T22:46:45.541Z,10.53
2018-07-12T22:49:14.334Z,10.77
2018-07-12T22:51:43.651Z,10.57
2018-07-12T22:54:12.392Z,10.33
2018-07-12T22:56:41.087Z,12.90
2018-07-12T22:59:09.840Z,10.97
2018-07-12T23:01:38.636Z,11.23
2018-07-12T23:04:07.394Z,12.83
2018-07-12T23:06:36.240Z,11.13
2018-07-12T23:09:05.423Z,13.63
2018-07-12T23:11:34.148Z,13.97
2018-07-12T23:14:02.923Z,12.03
2018-07-12T23:16:31.645Z,14.07
2018-07-12T23:19:00.354Z,15.23
2018-07-12T23:21:29.170Z,12.60
2018-07-12T23:23:57.889Z,11.87
2018-07-12T23:26:26.565Z,11.97
2018-07-12T23:28:55.359Z,11.50
2018-07-12T23:31:24.075Z,13.20
2018-07-12T23:33:52.817Z,12.30
2018-07-12T23:36:21.528Z,11.30
2018-07-12T23:38:50.168Z,12.20
2018-07-12T23:41:18.840Z,12.60
2018-07-12T23:43:47.609Z,18.37
2018-07-12T23:46:16.323Z,13.93
2018-07-12T23:48:45.024Z,15.17
2018-07-12T23:51:13.694Z,15.37
2018-07-12T23:53:42.395Z,15.73
2018-07-12T23:56:11.154Z,13.07
2018-07-12T23:58:39.880Z,13.10
